Locke Mills, Pennsylvania
Current Conditions -  °F | °C
As of 4:55 AM on Sunday 21 Dec 2014 (Local Time) from KUNV Reporting Station
Overcast Overcast  
Wind Chill: -3°   Ceiling: 2500
Heat Index: -3°   Visibility: 10mi
Dew Point: -5°   Wind: 0mph
Humidity: 82%   Direction: NA
Pressure: 30.25"   Gusts: NA
Location:  40.7567°N, 77.488°W
Report Text: KUNV 210955Z AUTO 00000KT 10SM BKN025 BKN060 OVC100 M03/M05 A3025 RMK AO2 T10271054
Loading
Personal Weather Stations






























Interactive Weather Map New forecast layout! Learn more

10-Day Weather Forecast

Advertisements
Track Severe Weather on mobile